sensor_id;sensor_type;location;lat;lon;timestamp;P1;durP1;ratioP1;P2;durP2;ratioP2
17197;SDS011;8715;51.010;6.812;2023-09-07T00:00:44;923.55;;;857.55;;
17197;SDS011;8715;51.010;6.812;2023-09-07T00:03:29;916.47;;;850.97;;
17197;SDS011;8715;51.010;6.812;2023-09-07T00:06:15;920.20;;;854.42;;
17197;SDS011;8715;51.010;6.812;2023-09-07T00:09:02;918.85;;;853.45;;
17197;SDS011;8715;51.010;6.812;2023-09-07T00:11:49;914.13;;;849.42;;
17197;SDS011;8715;51.010;6.812;2023-09-07T00:14:34;919.17;;;853.72;;
17197;SDS011;8715;51.010;6.812;2023-09-07T00:17:20;913.65;;;848.85;;
17197;SDS011;8715;51.010;6.812;2023-09-07T00:20:05;914.40;;;849.72;;
17197;SDS011;8715;51.010;6.812;2023-09-07T00:22:54;918.58;;;853.65;;
17197;SDS011;8715;51.010;6.812;2023-09-07T00:25:41;920.95;;;855.45;;
17197;SDS011;8715;51.010;6.812;2023-09-07T00:28:26;914.97;;;849.92;;
17197;SDS011;8715;51.010;6.812;2023-09-07T00:31:12;913.20;;;848.60;;
17197;SDS011;8715;51.010;6.812;2023-09-07T00:33:57;914.40;;;849.70;;
17197;SDS011;8715;51.010;6.812;2023-09-07T00:36:42;915.85;;;851.13;;
17197;SDS011;8715;51.010;6.812;2023-09-07T00:39:28;915.15;;;850.13;;
17197;SDS011;8715;51.010;6.812;2023-09-07T00:42:14;914.85;;;850.20;;
17197;SDS011;8715;51.010;6.812;2023-09-07T00:45:00;912.65;;;848.15;;
17197;SDS011;8715;51.010;6.812;2023-09-07T00:47:46;913.55;;;849.15;;
17197;SDS011;8715;51.010;6.812;2023-09-07T00:50:31;914.42;;;850.00;;
17197;SDS011;8715;51.010;6.812;2023-09-07T00:53:16;914.97;;;850.40;;
17197;SDS011;8715;51.010;6.812;2023-09-07T00:56:02;914.45;;;850.45;;
17197;SDS011;8715;51.010;6.812;2023-09-07T00:58:49;919.80;;;855.10;;
17197;SDS011;8715;51.010;6.812;2023-09-07T01:01:34;913.83;;;849.80;;
17197;SDS011;8715;51.010;6.812;2023-09-07T01:04:20;910.00;;;845.92;;
17197;SDS011;8715;51.010;6.812;2023-09-07T01:07:07;911.88;;;848.13;;
17197;SDS011;8715;51.010;6.812;2023-09-07T01:09:56;915.30;;;851.20;;
17197;SDS011;8715;51.010;6.812;2023-09-07T01:12:43;910.25;;;846.38;;
17197;SDS011;8715;51.010;6.812;2023-09-07T01:15:29;912.28;;;848.42;;
17197;SDS011;8715;51.010;6.812;2023-09-07T01:18:15;912.90;;;848.95;;
17197;SDS011;8715;51.010;6.812;2023-09-07T01:21:01;915.58;;;851.42;;
17197;SDS011;8715;51.010;6.812;2023-09-07T01:23:49;910.75;;;847.30;;
17197;SDS011;8715;51.010;6.812;2023-09-07T01:26:35;915.83;;;852.05;;
17197;SDS011;8715;51.010;6.812;2023-09-07T01:29:22;910.13;;;846.63;;
17197;SDS011;8715;51.010;6.812;2023-09-07T01:32:07;908.05;;;844.95;;
17197;SDS011;8715;51.010;6.812;2023-09-07T01:34:53;911.08;;;847.90;;
17197;SDS011;8715;51.010;6.812;2023-09-07T01:37:40;912.55;;;849.10;;
17197;SDS011;8715;51.010;6.812;2023-09-07T01:40:26;909.38;;;846.03;;
17197;SDS011;8715;51.010;6.812;2023-09-07T01:43:12;912.90;;;849.70;;
17197;SDS011;8715;51.010;6.812;2023-09-07T01:45:57;905.95;;;843.13;;
17197;SDS011;8715;51.010;6.812;2023-09-07T01:48:43;910.58;;;847.55;;
17197;SDS011;8715;51.010;6.812;2023-09-07T01:51:28;907.40;;;844.67;;
17197;SDS011;8715;51.010;6.812;2023-09-07T01:54:13;914.22;;;851.58;;
17197;SDS011;8715;51.010;6.812;2023-09-07T01:57:00;906.33;;;843.75;;
17197;SDS011;8715;51.010;6.812;2023-09-07T01:59:46;912.92;;;850.03;;
17197;SDS011;8715;51.010;6.812;2023-09-07T02:02:32;908.00;;;845.38;;
17197;SDS011;8715;51.010;6.812;2023-09-07T02:05:17;910.92;;;848.60;;
17197;SDS011;8715;51.010;6.812;2023-09-07T02:08:02;906.75;;;844.33;;
17197;SDS011;8715;51.010;6.812;2023-09-07T02:10:48;901.65;;;839.83;;
17197;SDS011;8715;51.010;6.812;2023-09-07T02:13:35;905.10;;;842.95;;
17197;SDS011;8715;51.010;6.812;2023-09-07T02:16:20;908.83;;;846.40;;
17197;SDS011;8715;51.010;6.812;2023-09-07T02:19:05;907.22;;;844.50;;
17197;SDS011;8715;51.010;6.812;2023-09-07T02:21:51;909.20;;;846.72;;
17197;SDS011;8715;51.010;6.812;2023-09-07T02:24:36;910.88;;;848.00;;
17197;SDS011;8715;51.010;6.812;2023-09-07T02:27:22;910.75;;;847.65;;
17197;SDS011;8715;51.010;6.812;2023-09-07T02:30:09;905.67;;;843.08;;
17197;SDS011;8715;51.010;6.812;2023-09-07T02:32:55;908.47;;;845.85;;
17197;SDS011;8715;51.010;6.812;2023-09-07T02:35:40;910.13;;;846.85;;
17197;SDS011;8715;51.010;6.812;2023-09-07T02:38:26;907.03;;;844.60;;
17197;SDS011;8715;51.010;6.812;2023-09-07T02:41:11;905.28;;;843.03;;
17197;SDS011;8715;51.010;6.812;2023-09-07T02:43:57;909.20;;;846.78;;
17197;SDS011;8715;51.010;6.812;2023-09-07T02:46:44;908.50;;;845.67;;
17197;SDS011;8715;51.010;6.812;2023-09-07T02:49:29;904.75;;;842.53;;
17197;SDS011;8715;51.010;6.812;2023-09-07T02:52:14;905.53;;;843.28;;
17197;SDS011;8715;51.010;6.812;2023-09-07T02:54:59;908.65;;;846.13;;
17197;SDS011;8715;51.010;6.812;2023-09-07T02:57:45;904.45;;;842.42;;
17197;SDS011;8715;51.010;6.812;2023-09-07T03:00:30;906.85;;;844.25;;
17197;SDS011;8715;51.010;6.812;2023-09-07T03:03:16;906.35;;;844.05;;
17197;SDS011;8715;51.010;6.812;2023-09-07T03:06:07;910.55;;;848.08;;
17197;SDS011;8715;51.010;6.812;2023-09-07T03:08:53;910.15;;;847.25;;
17197;SDS011;8715;51.010;6.812;2023-09-07T03:11:38;906.30;;;844.05;;
17197;SDS011;8715;51.010;6.812;2023-09-07T03:14:23;905.25;;;843.22;;
17197;SDS011;8715;51.010;6.812;2023-09-07T03:17:09;912.25;;;849.72;;
17197;SDS011;8715;51.010;6.812;2023-09-07T03:19:56;908.67;;;846.22;;
17197;SDS011;8715;51.010;6.812;2023-09-07T03:22:41;906.17;;;843.20;;
17197;SDS011;8715;51.010;6.812;2023-09-07T03:25:26;904.95;;;842.83;;
17197;SDS011;8715;51.010;6.812;2023-09-07T03:28:11;908.58;;;846.15;;
17197;SDS011;8715;51.010;6.812;2023-09-07T03:30:57;905.53;;;843.08;;
17197;SDS011;8715;51.010;6.812;2023-09-07T03:33:42;905.17;;;843.03;;
17197;SDS011;8715;51.010;6.812;2023-09-07T03:36:29;908.45;;;845.97;;
17197;SDS011;8715;51.010;6.812;2023-09-07T03:39:14;905.65;;;843.17;;
17197;SDS011;8715;51.010;6.812;2023-09-07T03:41:59;901.83;;;839.88;;
17197;SDS011;8715;51.010;6.812;2023-09-07T03:44:45;905.75;;;843.72;;
17197;SDS011;8715;51.010;6.812;2023-09-07T03:47:30;908.08;;;845.88;;
17197;SDS011;8715;51.010;6.812;2023-09-07T03:50:15;907.22;;;844.95;;
17197;SDS011;8715;51.010;6.812;2023-09-07T03:53:02;909.53;;;847.25;;
17197;SDS011;8715;51.010;6.812;2023-09-07T03:55:48;909.58;;;847.25;;
17197;SDS011;8715;51.010;6.812;2023-09-07T03:58:33;908.53;;;846.30;;
17197;SDS011;8715;51.010;6.812;2023-09-07T04:01:19;909.28;;;846.92;;
17197;SDS011;8715;51.010;6.812;2023-09-07T04:04:04;909.05;;;846.92;;
17197;SDS011;8715;51.010;6.812;2023-09-07T04:06:50;906.17;;;844.15;;
17197;SDS011;8715;51.010;6.812;2023-09-07T04:09:36;903.40;;;841.33;;
17197;SDS011;8715;51.010;6.812;2023-09-07T04:12:21;904.17;;;842.17;;
17197;SDS011;8715;51.010;6.812;2023-09-07T04:15:07;905.92;;;843.88;;
17197;SDS011;8715;51.010;6.812;2023-09-07T04:17:53;905.40;;;843.45;;
17197;SDS011;8715;51.010;6.812;2023-09-07T04:20:39;907.80;;;845.35;;
17197;SDS011;8715;51.010;6.812;2023-09-07T04:23:24;900.78;;;839.00;;
17197;SDS011;8715;51.010;6.812;2023-09-07T04:26:11;905.30;;;843.28;;
17197;SDS011;8715;51.010;6.812;2023-09-07T04:28:57;903.60;;;841.50;;
17197;SDS011;8715;51.010;6.812;2023-09-07T04:31:42;898.47;;;836.97;;
17197;SDS011;8715;51.010;6.812;2023-09-07T04:34:27;911.35;;;849.17;;
17197;SDS011;8715;51.010;6.812;2023-09-07T04:37:12;904.65;;;842.95;;
17197;SDS011;8715;51.010;6.812;2023-09-07T04:39:58;900.53;;;839.22;;
17197;SDS011;8715;51.010;6.812;2023-09-07T04:42:44;906.13;;;843.97;;
17197;SDS011;8715;51.010;6.812;2023-09-07T04:45:30;905.75;;;844.08;;
17197;SDS011;8715;51.010;6.812;2023-09-07T04:48:15;904.58;;;842.30;;
17197;SDS011;8715;51.010;6.812;2023-09-07T04:51:00;904.70;;;842.72;;
17197;SDS011;8715;51.010;6.812;2023-09-07T04:53:47;907.83;;;846.03;;
17197;SDS011;8715;51.010;6.812;2023-09-07T04:56:32;899.70;;;838.55;;
17197;SDS011;8715;51.010;6.812;2023-09-07T04:59:19;907.38;;;844.88;;
17197;SDS011;8715;51.010;6.812;2023-09-07T05:02:04;912.47;;;849.88;;
17197;SDS011;8715;51.010;6.812;2023-09-07T05:04:49;905.97;;;843.75;;
17197;SDS011;8715;51.010;6.812;2023-09-07T05:07:35;909.97;;;847.33;;
17197;SDS011;8715;51.010;6.812;2023-09-07T05:10:20;906.90;;;843.85;;
17197;SDS011;8715;51.010;6.812;2023-09-07T05:13:05;912.00;;;847.55;;
17197;SDS011;8715;51.010;6.812;2023-09-07T05:15:53;919.65;;;853.85;;
17197;SDS011;8715;51.010;6.812;2023-09-07T05:18:40;920.72;;;853.42;;
17197;SDS011;8715;51.010;6.812;2023-09-07T05:21:26;931.70;;;862.33;;
17197;SDS011;8715;51.010;6.812;2023-09-07T05:24:12;937.13;;;866.00;;
17197;SDS011;8715;51.010;6.812;2023-09-07T05:26:58;940.17;;;866.95;;
17197;SDS011;8715;51.010;6.812;2023-09-07T05:29:43;952.42;;;877.20;;
17197;SDS011;8715;51.010;6.812;2023-09-07T05:32:30;956.40;;;879.53;;
17197;SDS011;8715;51.010;6.812;2023-09-07T05:35:15;957.30;;;878.83;;
17197;SDS011;8715;51.010;6.812;2023-09-07T05:38:01;967.92;;;887.53;;
17197;SDS011;8715;51.010;6.812;2023-09-07T05:40:46;972.80;;;890.80;;
17197;SDS011;8715;51.010;6.812;2023-09-07T05:43:34;977.30;;;893.40;;
17197;SDS011;8715;51.010;6.812;2023-09-07T05:46:19;981.15;;;896.08;;
17197;SDS011;8715;51.010;6.812;2023-09-07T05:49:06;979.17;;;893.33;;
17197;SDS011;8715;51.010;6.812;2023-09-07T05:51:51;984.13;;;897.33;;
17197;SDS011;8715;51.010;6.812;2023-09-07T05:54:36;983.55;;;896.63;;
17197;SDS011;8715;51.010;6.812;2023-09-07T05:57:22;981.13;;;894.55;;
17197;SDS011;8715;51.010;6.812;2023-09-07T06:00:07;983.45;;;896.40;;
17197;SDS011;8715;51.010;6.812;2023-09-07T06:02:53;983.90;;;896.90;;
17197;SDS011;8715;51.010;6.812;2023-09-07T06:05:40;983.42;;;896.40;;
17197;SDS011;8715;51.010;6.812;2023-09-07T06:08:25;986.85;;;899.38;;
17197;SDS011;8715;51.010;6.812;2023-09-07T06:11:11;992.58;;;903.47;;
17197;SDS011;8715;51.010;6.812;2023-09-07T06:13:56;990.60;;;900.45;;
17197;SDS011;8715;51.010;6.812;2023-09-07T06:16:41;997.58;;;905.75;;
17197;SDS011;8715;51.010;6.812;2023-09-07T06:19:27;997.88;;;905.45;;
17197;SDS011;8715;51.010;6.812;2023-09-07T06:22:13;999.60;;;906.47;;
17197;SDS011;8715;51.010;6.812;2023-09-07T06:24:59;1001.15;;;907.40;;
17197;SDS011;8715;51.010;6.812;2023-09-07T06:27:44;1001.72;;;908.28;;
17197;SDS011;8715;51.010;6.812;2023-09-07T06:30:29;998.20;;;905.42;;
17197;SDS011;8715;51.010;6.812;2023-09-07T06:33:15;998.28;;;906.25;;
17197;SDS011;8715;51.010;6.812;2023-09-07T06:36:00;994.13;;;903.33;;
17197;SDS011;8715;51.010;6.812;2023-09-07T06:38:47;988.67;;;899.70;;
17197;SDS011;8715;51.010;6.812;2023-09-07T06:41:32;987.72;;;900.03;;
17197;SDS011;8715;51.010;6.812;2023-09-07T06:44:18;983.20;;;896.75;;
17197;SDS011;8715;51.010;6.812;2023-09-07T06:47:03;978.88;;;893.95;;
17197;SDS011;8715;51.010;6.812;2023-09-07T06:49:49;973.47;;;890.03;;
17197;SDS011;8715;51.010;6.812;2023-09-07T06:52:34;972.25;;;889.92;;
17197;SDS011;8715;51.010;6.812;2023-09-07T06:55:21;969.45;;;888.08;;
17197;SDS011;8715;51.010;6.812;2023-09-07T06:58:06;966.90;;;886.55;;
17197;SDS011;8715;51.010;6.812;2023-09-07T07:00:51;965.92;;;885.90;;
17197;SDS011;8715;51.010;6.812;2023-09-07T07:03:36;965.17;;;885.25;;
17197;SDS011;8715;51.010;6.812;2023-09-07T07:06:23;960.10;;;881.03;;
17197;SDS011;8715;51.010;6.812;2023-09-07T07:09:09;962.38;;;883.63;;
17197;SDS011;8715;51.010;6.812;2023-09-07T07:11:56;963.00;;;883.97;;
17197;SDS011;8715;51.010;6.812;2023-09-07T07:14:41;962.97;;;884.22;;
17197;SDS011;8715;51.010;6.812;2023-09-07T07:17:26;961.10;;;882.17;;
17197;SDS011;8715;51.010;6.812;2023-09-07T07:20:12;961.47;;;882.38;;
17197;SDS011;8715;51.010;6.812;2023-09-07T07:22:57;966.80;;;887.67;;
17197;SDS011;8715;51.010;6.812;2023-09-07T07:25:43;960.88;;;882.45;;
17197;SDS011;8715;51.010;6.812;2023-09-07T07:28:29;960.33;;;881.67;;
17197;SDS011;8715;51.010;6.812;2023-09-07T07:31:14;962.15;;;883.25;;
17197;SDS011;8715;51.010;6.812;2023-09-07T07:34:00;960.20;;;881.30;;
17197;SDS011;8715;51.010;6.812;2023-09-07T07:36:45;960.47;;;880.97;;
17197;SDS011;8715;51.010;6.812;2023-09-07T07:39:30;961.85;;;882.83;;
17197;SDS011;8715;51.010;6.812;2023-09-07T07:42:16;961.63;;;882.97;;
17197;SDS011;8715;51.010;6.812;2023-09-07T07:45:03;958.50;;;879.90;;
17197;SDS011;8715;51.010;6.812;2023-09-07T07:47:49;959.17;;;880.83;;
17197;SDS011;8715;51.010;6.812;2023-09-07T07:50:38;958.03;;;880.13;;
17197;SDS011;8715;51.010;6.812;2023-09-07T07:53:24;959.85;;;881.15;;
17197;SDS011;8715;51.010;6.812;2023-09-07T07:56:14;959.67;;;881.17;;
17197;SDS011;8715;51.010;6.812;2023-09-07T07:59:00;960.58;;;881.95;;
17197;SDS011;8715;51.010;6.812;2023-09-07T08:01:48;960.55;;;881.78;;
17197;SDS011;8715;51.010;6.812;2023-09-07T08:04:33;966.30;;;886.75;;
17197;SDS011;8715;51.010;6.812;2023-09-07T08:07:19;965.92;;;886.03;;
17197;SDS011;8715;51.010;6.812;2023-09-07T08:10:04;965.03;;;884.45;;
17197;SDS011;8715;51.010;6.812;2023-09-07T08:12:52;966.45;;;885.92;;
17197;SDS011;8715;51.010;6.812;2023-09-07T08:15:38;964.35;;;883.83;;
17197;SDS011;8715;51.010;6.812;2023-09-07T08:18:25;968.97;;;888.10;;
17197;SDS011;8715;51.010;6.812;2023-09-07T08:21:10;967.67;;;887.05;;
17197;SDS011;8715;51.010;6.812;2023-09-07T08:23:56;969.00;;;887.80;;
17197;SDS011;8715;51.010;6.812;2023-09-07T08:26:41;969.63;;;888.67;;
17197;SDS011;8715;51.010;6.812;2023-09-07T08:29:27;970.80;;;889.88;;
17197;SDS011;8715;51.010;6.812;2023-09-07T08:32:15;968.30;;;887.20;;
17197;SDS011;8715;51.010;6.812;2023-09-07T08:35:02;964.10;;;883.72;;
17197;SDS011;8715;51.010;6.812;2023-09-07T08:37:51;966.33;;;885.72;;
17197;SDS011;8715;51.010;6.812;2023-09-07T08:40:37;972.28;;;890.67;;
17197;SDS011;8715;51.010;6.812;2023-09-07T08:43:24;971.72;;;889.85;;
17197;SDS011;8715;51.010;6.812;2023-09-07T08:46:12;972.05;;;889.63;;
17197;SDS011;8715;51.010;6.812;2023-09-07T08:48:59;970.17;;;888.13;;
17197;SDS011;8715;51.010;6.812;2023-09-07T08:51:48;971.80;;;889.35;;
17197;SDS011;8715;51.010;6.812;2023-09-07T08:54:35;971.70;;;889.17;;
17197;SDS011;8715;51.010;6.812;2023-09-07T08:57:22;973.08;;;890.85;;
17197;SDS011;8715;51.010;6.812;2023-09-07T09:00:07;974.20;;;891.05;;
17197;SDS011;8715;51.010;6.812;2023-09-07T09:02:59;975.53;;;892.72;;
17197;SDS011;8715;51.010;6.812;2023-09-07T09:05:45;975.72;;;892.28;;
17197;SDS011;8715;51.010;6.812;2023-09-07T09:08:42;975.55;;;892.25;;
17197;SDS011;8715;51.010;6.812;2023-09-07T09:11:27;974.75;;;891.28;;
17197;SDS011;8715;51.010;6.812;2023-09-07T09:14:13;975.08;;;891.03;;
17197;SDS011;8715;51.010;6.812;2023-09-07T09:17:01;978.47;;;894.15;;
17197;SDS011;8715;51.010;6.812;2023-09-07T09:19:46;975.40;;;891.45;;
17197;SDS011;8715;51.010;6.812;2023-09-07T09:22:32;977.35;;;893.10;;
17197;SDS011;8715;51.010;6.812;2023-09-07T09:25:18;978.70;;;893.97;;
17197;SDS011;8715;51.010;6.812;2023-09-07T09:28:04;977.67;;;893.10;;
17197;SDS011;8715;51.010;6.812;2023-09-07T09:30:50;981.30;;;896.05;;
17197;SDS011;8715;51.010;6.812;2023-09-07T09:33:35;980.17;;;895.20;;
17197;SDS011;8715;51.010;6.812;2023-09-07T09:36:21;981.78;;;896.40;;
17197;SDS011;8715;51.010;6.812;2023-09-07T09:39:06;977.95;;;892.80;;
17197;SDS011;8715;51.010;6.812;2023-09-07T09:41:54;979.38;;;894.25;;
17197;SDS011;8715;51.010;6.812;2023-09-07T09:44:39;977.97;;;893.38;;
17197;SDS011;8715;51.010;6.812;2023-09-07T09:47:25;981.78;;;896.47;;
17197;SDS011;8715;51.010;6.812;2023-09-07T09:50:11;982.03;;;895.97;;
17197;SDS011;8715;51.010;6.812;2023-09-07T09:52:56;982.10;;;895.78;;
17197;SDS011;8715;51.010;6.812;2023-09-07T09:55:42;980.63;;;894.88;;
17197;SDS011;8715;51.010;6.812;2023-09-07T09:58:29;979.45;;;893.45;;
17197;SDS011;8715;51.010;6.812;2023-09-07T10:01:14;980.25;;;894.50;;
17197;SDS011;8715;51.010;6.812;2023-09-07T10:04:00;982.58;;;896.25;;
17197;SDS011;8715;51.010;6.812;2023-09-07T10:06:50;987.75;;;900.88;;
17197;SDS011;8715;51.010;6.812;2023-09-07T10:09:36;985.05;;;898.50;;
17197;SDS011;8715;51.010;6.812;2023-09-07T10:12:27;986.85;;;899.58;;
17197;SDS011;8715;51.010;6.812;2023-09-07T10:15:26;985.47;;;898.40;;
17197;SDS011;8715;51.010;6.812;2023-09-07T10:18:14;983.95;;;896.75;;
17197;SDS011;8715;51.010;6.812;2023-09-07T10:21:00;984.17;;;897.15;;
17197;SDS011;8715;51.010;6.812;2023-09-07T10:23:46;986.15;;;898.65;;
17197;SDS011;8715;51.010;6.812;2023-09-07T10:26:36;985.20;;;897.70;;
17197;SDS011;8715;51.010;6.812;2023-09-07T10:29:21;986.17;;;898.95;;
17197;SDS011;8715;51.010;6.812;2023-09-07T10:32:09;983.35;;;895.80;;
17197;SDS011;8715;51.010;6.812;2023-09-07T10:34:59;985.55;;;898.08;;
17197;SDS011;8715;51.010;6.812;2023-09-07T10:37:44;987.00;;;899.42;;
17197;SDS011;8715;51.010;6.812;2023-09-07T10:40:30;992.20;;;903.92;;
17197;SDS011;8715;51.010;6.812;2023-09-07T10:43:16;986.08;;;898.28;;
17197;SDS011;8715;51.010;6.812;2023-09-07T10:46:01;988.70;;;900.53;;
17197;SDS011;8715;51.010;6.812;2023-09-07T10:48:49;988.55;;;900.42;;
17197;SDS011;8715;51.010;6.812;2023-09-07T10:51:42;987.75;;;899.40;;
17197;SDS011;8715;51.010;6.812;2023-09-07T10:54:28;988.60;;;900.08;;
17197;SDS011;8715;51.010;6.812;2023-09-07T10:57:14;990.13;;;901.67;;
17197;SDS011;8715;51.010;6.812;2023-09-07T11:00:02;991.13;;;902.72;;
17197;SDS011;8715;51.010;6.812;2023-09-07T11:02:47;987.22;;;898.78;;
17197;SDS011;8715;51.010;6.812;2023-09-07T11:05:34;987.22;;;898.90;;
17197;SDS011;8715;51.010;6.812;2023-09-07T11:08:20;987.60;;;899.45;;
17197;SDS011;8715;51.010;6.812;2023-09-07T11:11:07;992.30;;;903.13;;
17197;SDS011;8715;51.010;6.812;2023-09-07T11:13:53;994.97;;;904.90;;
17197;SDS011;8715;51.010;6.812;2023-09-07T11:16:40;989.80;;;900.25;;
17197;SDS011;8715;51.010;6.812;2023-09-07T11:19:27;997.78;;;907.08;;
17197;SDS011;8715;51.010;6.812;2023-09-07T11:22:13;994.97;;;904.60;;
17197;SDS011;8715;51.010;6.812;2023-09-07T11:24:59;993.20;;;902.83;;
17197;SDS011;8715;51.010;6.812;2023-09-07T11:27:44;997.17;;;906.72;;
17197;SDS011;8715;51.010;6.812;2023-09-07T11:30:30;994.03;;;903.72;;
17197;SDS011;8715;51.010;6.812;2023-09-07T11:33:15;994.97;;;904.33;;
17197;SDS011;8715;51.010;6.812;2023-09-07T11:36:00;993.42;;;902.90;;
17197;SDS011;8715;51.010;6.812;2023-09-07T11:38:47;994.65;;;903.97;;
17197;SDS011;8715;51.010;6.812;2023-09-07T11:41:32;993.65;;;903.30;;
17197;SDS011;8715;51.010;6.812;2023-09-07T11:44:18;996.35;;;906.05;;
17197;SDS011;8715;51.010;6.812;2023-09-07T11:47:03;994.72;;;904.20;;
17197;SDS011;8715;51.010;6.812;2023-09-07T11:49:49;992.28;;;902.05;;
17197;SDS011;8715;51.010;6.812;2023-09-07T11:52:34;995.90;;;905.42;;
17197;SDS011;8715;51.010;6.812;2023-09-07T11:55:21;992.45;;;902.55;;
17197;SDS011;8715;51.010;6.812;2023-09-07T11:58:06;991.80;;;901.88;;
17197;SDS011;8715;51.010;6.812;2023-09-07T12:00:52;993.45;;;903.90;;
17197;SDS011;8715;51.010;6.812;2023-09-07T12:03:38;994.67;;;904.97;;
17197;SDS011;8715;51.010;6.812;2023-09-07T12:06:24;990.20;;;900.83;;
17197;SDS011;8715;51.010;6.812;2023-09-07T12:09:09;989.10;;;899.72;;
17197;SDS011;8715;51.010;6.812;2023-09-07T12:11:56;992.88;;;903.10;;
17197;SDS011;8715;51.010;6.812;2023-09-07T12:14:42;994.83;;;904.67;;
17197;SDS011;8715;51.010;6.812;2023-09-07T12:17:27;997.55;;;906.30;;
17197;SDS011;8715;51.010;6.812;2023-09-07T12:20:12;998.05;;;906.83;;
17197;SDS011;8715;51.010;6.812;2023-09-07T12:22:58;996.17;;;905.15;;
17197;SDS011;8715;51.010;6.812;2023-09-07T12:25:43;997.03;;;906.30;;
17197;SDS011;8715;51.010;6.812;2023-09-07T12:28:32;991.75;;;901.53;;
17197;SDS011;8715;51.010;6.812;2023-09-07T12:31:17;996.50;;;906.03;;
17197;SDS011;8715;51.010;6.812;2023-09-07T12:34:02;993.03;;;902.88;;
17197;SDS011;8715;51.010;6.812;2023-09-07T12:36:48;995.95;;;905.33;;
17197;SDS011;8715;51.010;6.812;2023-09-07T12:39:34;995.83;;;905.22;;
17197;SDS011;8715;51.010;6.812;2023-09-07T12:42:19;995.30;;;904.33;;
17197;SDS011;8715;51.010;6.812;2023-09-07T12:45:06;992.53;;;901.95;;
17197;SDS011;8715;51.010;6.812;2023-09-07T12:47:52;991.83;;;901.67;;
17197;SDS011;8715;51.010;6.812;2023-09-07T12:50:38;995.50;;;905.08;;
17197;SDS011;8715;51.010;6.812;2023-09-07T12:53:24;996.33;;;906.22;;
17197;SDS011;8715;51.010;6.812;2023-09-07T12:56:10;993.53;;;903.35;;
17197;SDS011;8715;51.010;6.812;2023-09-07T12:58:55;991.83;;;901.83;;
17197;SDS011;8715;51.010;6.812;2023-09-07T13:01:44;992.47;;;902.50;;
17197;SDS011;8715;51.010;6.812;2023-09-07T13:04:30;993.28;;;902.78;;
17197;SDS011;8715;51.010;6.812;2023-09-07T13:07:16;994.85;;;904.30;;
17197;SDS011;8715;51.010;6.812;2023-09-07T13:10:01;991.85;;;901.83;;
17197;SDS011;8715;51.010;6.812;2023-09-07T13:12:47;994.55;;;903.47;;
17197;SDS011;8715;51.010;6.812;2023-09-07T13:15:33;994.85;;;904.40;;
17197;SDS011;8715;51.010;6.812;2023-09-07T13:18:19;993.65;;;903.42;;
17197;SDS011;8715;51.010;6.812;2023-09-07T13:21:05;994.10;;;903.75;;
17197;SDS011;8715;51.010;6.812;2023-09-07T13:23:50;992.95;;;902.63;;
17197;SDS011;8715;51.010;6.812;2023-09-07T13:26:36;995.53;;;904.40;;
17197;SDS011;8715;51.010;6.812;2023-09-07T13:29:21;993.08;;;902.25;;
17197;SDS011;8715;51.010;6.812;2023-09-07T13:32:06;992.65;;;901.92;;
17197;SDS011;8715;51.010;6.812;2023-09-07T13:34:53;994.97;;;904.10;;
17197;SDS011;8715;51.010;6.812;2023-09-07T13:37:38;993.17;;;902.63;;
17197;SDS011;8715;51.010;6.812;2023-09-07T13:40:24;991.45;;;901.25;;
17197;SDS011;8715;51.010;6.812;2023-09-07T13:43:13;992.10;;;902.40;;
17197;SDS011;8715;51.010;6.812;2023-09-07T13:45:58;994.53;;;904.20;;
17197;SDS011;8715;51.010;6.812;2023-09-07T13:48:43;993.45;;;903.25;;
17197;SDS011;8715;51.010;6.812;2023-09-07T13:51:30;994.17;;;904.08;;
17197;SDS011;8715;51.010;6.812;2023-09-07T13:54:21;992.25;;;901.97;;
17197;SDS011;8715;51.010;6.812;2023-09-07T13:57:06;994.05;;;903.78;;
17197;SDS011;8715;51.010;6.812;2023-09-07T13:59:52;993.95;;;903.45;;
17197;SDS011;8715;51.010;6.812;2023-09-07T14:02:37;995.22;;;904.95;;
17197;SDS011;8715;51.010;6.812;2023-09-07T14:05:23;994.42;;;903.78;;
17197;SDS011;8715;51.010;6.812;2023-09-07T14:08:09;995.95;;;905.55;;
17197;SDS011;8715;51.010;6.812;2023-09-07T14:10:54;993.08;;;902.40;;
17197;SDS011;8715;51.010;6.812;2023-09-07T14:13:40;995.08;;;904.47;;
17197;SDS011;8715;51.010;6.812;2023-09-07T14:16:25;995.30;;;904.63;;
17197;SDS011;8715;51.010;6.812;2023-09-07T14:19:10;994.40;;;903.58;;
17197;SDS011;8715;51.010;6.812;2023-09-07T14:21:56;992.42;;;902.03;;
17197;SDS011;8715;51.010;6.812;2023-09-07T14:24:42;996.65;;;906.03;;
17197;SDS011;8715;51.010;6.812;2023-09-07T14:27:28;994.75;;;903.75;;
17197;SDS011;8715;51.010;6.812;2023-09-07T14:30:13;994.72;;;903.95;;
17197;SDS011;8715;51.010;6.812;2023-09-07T14:32:58;997.45;;;906.53;;
17197;SDS011;8715;51.010;6.812;2023-09-07T14:35:44;992.00;;;901.58;;
17197;SDS011;8715;51.010;6.812;2023-09-07T14:38:30;992.95;;;902.58;;
17197;SDS011;8715;51.010;6.812;2023-09-07T14:41:19;993.78;;;903.28;;
17197;SDS011;8715;51.010;6.812;2023-09-07T14:44:06;991.00;;;900.88;;
17197;SDS011;8715;51.010;6.812;2023-09-07T14:46:52;995.13;;;904.38;;
17197;SDS011;8715;51.010;6.812;2023-09-07T14:49:38;996.45;;;905.67;;
17197;SDS011;8715;51.010;6.812;2023-09-07T14:52:23;996.25;;;905.65;;
17197;SDS011;8715;51.010;6.812;2023-09-07T14:55:08;991.50;;;901.67;;
17197;SDS011;8715;51.010;6.812;2023-09-07T14:57:56;992.70;;;902.70;;
17197;SDS011;8715;51.010;6.812;2023-09-07T15:00:41;990.92;;;900.95;;
17197;SDS011;8715;51.010;6.812;2023-09-07T15:03:26;992.33;;;902.08;;
17197;SDS011;8715;51.010;6.812;2023-09-07T15:06:12;991.03;;;901.22;;
17197;SDS011;8715;51.010;6.812;2023-09-07T15:08:59;991.08;;;901.22;;
17197;SDS011;8715;51.010;6.812;2023-09-07T15:11:45;993.70;;;903.65;;
17197;SDS011;8715;51.010;6.812;2023-09-07T15:14:31;993.25;;;903.40;;
17197;SDS011;8715;51.010;6.812;2023-09-07T15:17:16;992.95;;;903.00;;
17197;SDS011;8715;51.010;6.812;2023-09-07T15:20:03;993.90;;;903.88;;
17197;SDS011;8715;51.010;6.812;2023-09-07T15:22:49;993.40;;;903.60;;
17197;SDS011;8715;51.010;6.812;2023-09-07T15:25:35;991.40;;;901.78;;
17197;SDS011;8715;51.010;6.812;2023-09-07T15:28:20;994.97;;;904.65;;
17197;SDS011;8715;51.010;6.812;2023-09-07T15:31:06;990.67;;;900.85;;
17197;SDS011;8715;51.010;6.812;2023-09-07T15:33:51;995.22;;;905.20;;
17197;SDS011;8715;51.010;6.812;2023-09-07T15:36:37;989.38;;;899.67;;
17197;SDS011;8715;51.010;6.812;2023-09-07T15:39:22;993.80;;;903.95;;
17197;SDS011;8715;51.010;6.812;2023-09-07T15:42:08;992.13;;;902.25;;
17197;SDS011;8715;51.010;6.812;2023-09-07T15:44:53;991.72;;;901.92;;
17197;SDS011;8715;51.010;6.812;2023-09-07T15:47:40;992.92;;;902.83;;
17197;SDS011;8715;51.010;6.812;2023-09-07T15:50:25;992.92;;;902.53;;
17197;SDS011;8715;51.010;6.812;2023-09-07T15:53:11;994.85;;;904.42;;
17197;SDS011;8715;51.010;6.812;2023-09-07T15:55:57;993.17;;;902.97;;